首页
METAR-TAF:

METAR-TAF

机场 :

Manitowoc County Airport

Manitowoc, 威斯康辛州, 美国

纬度: 44-08N, 经度: 087-41W, 海拔: 198米

当前天气观测

该预报发布于18分钟前的20:56 UTC
风速14节,风向西转西北
温度 -4°C
湿度 80%
气压 1006 hPa
能見度: 6.4公里
阴天层高于1100英尺
轻雾

METAR: KMTW 142056Z AUTO 29014KT 4SM BR OVC011 M04/M07 A2970 RMK AO2 SLP067 60000 T10441067 53005 FZRANO

时间: 15:14 (21:14 UTC)

预报

该预报发布于3小时和43分钟前的17:31 UTC
预报有效从14日的 18点(UTC)到 15日的 18点(UTC)
风速10节,风向西转西北
能見度: 10公里
阴天层高于1500英尺
短暂存在
从 14日的 18点(UTC)到 14日的 21点(UTC)
能見度: 8.0公里
(小) 冻, 毛毛雨, 雪
从 14日的 2100点(UTC)
风速11节,风向西转西北,有时为17节阵风
能見度: 10公里
阴天层高于2500英尺
小阵雪
短暂存在
从 14日的 21点(UTC)到 15日的 01点(UTC)
能見度: 4.8公里
小阵雪
从 15日的 0300点(UTC)
风速11节,风向西转西北,有时为17节阵风
能見度: 10公里
多云层高于3500英尺
从 15日的 1000点(UTC)
风速8节,风向西转西北
能見度: 10公里
散云层高于12000英尺

TAF: KMTW 141731Z 1418/1518 30010KT P6SM OVC015 TEMPO 1418/1421 5SM -FZDZSN FM142100 30011G17KT P6SM -SHSN OVC025 TEMPO 1421/1501 3SM -SHSN FM150300 30011G17KT P6SM BKN035 FM151000 30008KT P6SM SCT120

超过4000个机场的气象观测和天气预报(METAR&TAF报告)。

可查询的气象台以黄色和红色小点在地图上表示。

将鼠标移到小点上方,可查看气象台名称。

然后点击查看天气观测和预报。

如需切换地图:点击带黑十字的绿色按钮放大地图;点击带横线的绿色按钮缩小地图;或者点击绿色箭头查看邻近地区的地图。


METAR-TAF: